WIF2TJ ENAN-ENEV
Flight info
| Callsign | WIF2TJ |
|---|---|
| Flight time | 0h 18m |
| Altitude | 12000 |
| Route | EVANI |
| Aircraft | DH8B/M-SDFGR/S |
Departure
| Time | 2026-05-05 06:50 |
|---|---|
| Airport | Andøya Airport, Andenes (ENAN) |
Arrival
| Time | 2026-05-05 07:09 |
|---|---|
| Airport | Harstad/Narvik Airport (ENEV) |
| Time | Latitude | Longitude | Altitude | Speed | Heading |
|---|---|---|---|---|---|
| 2026-05-05 06:41 | 69.31008 | 16.12413 | 29 ft | 0 kts | 8° |
| 2026-05-05 06:45 | 69.31012 | 16.12417 | 28 ft | 5 kts | 25° |
| 2026-05-05 06:45 | 69.31024 | 16.12480 | 26 ft | 2 kts | 80° |
| 2026-05-05 06:46 | 69.31010 | 16.12524 | 29 ft | 4 kts | 140° |
| 2026-05-05 06:46 | 69.30981 | 16.12556 | 28 ft | 10 kts | 160° |
| 2026-05-05 06:46 | 69.30908 | 16.12432 | 30 ft | 17 kts | 211° |
| 2026-05-05 06:46 | 69.30765 | 16.12320 | 28 ft | 25 kts | 211° |
| 2026-05-05 06:47 | 69.30662 | 16.11912 | 31 ft | 28 kts | 240° |
| 2026-05-05 06:47 | 69.30554 | 16.11615 | 33 ft | 17 kts | 140° |
| 2026-05-05 06:47 | 69.30447 | 16.11795 | 37 ft | 20 kts | 150° |
| 2026-05-05 06:47 | 69.30315 | 16.12009 | 39 ft | 24 kts | 149° |
| 2026-05-05 06:48 | 69.30164 | 16.12262 | 35 ft | 25 kts | 149° |
| 2026-05-05 06:48 | 69.29999 | 16.12534 | 30 ft | 30 kts | 150° |
| 2026-05-05 06:48 | 69.29838 | 16.12798 | 27 ft | 25 kts | 150° |
| 2026-05-05 06:48 | 69.29680 | 16.13055 | 22 ft | 25 kts | 149° |
| 2026-05-05 06:49 | 69.29535 | 16.13293 | 22 ft | 25 kts | 150° |
| 2026-05-05 06:49 | 69.29377 | 16.13557 | 24 ft | 28 kts | 149° |
| 2026-05-05 06:49 | 69.29230 | 16.13796 | 23 ft | 26 kts | 150° |
| 2026-05-05 06:49 | 69.29081 | 16.14034 | 25 ft | 23 kts | 150° |
| 2026-05-05 06:50 | 69.29069 | 16.14121 | 27 ft | 0 kts | 32° |
| 2026-05-05 06:50 | 69.29274 | 16.14473 | 29 ft | 89 kts | 32° |
| 2026-05-05 06:50 | 69.29942 | 16.15689 | 454 ft | 125 kts | 40° |
| 2026-05-05 06:50 | 69.30325 | 16.18095 | 980 ft | 161 kts | 85° |
| 2026-05-05 06:51 | 69.29821 | 16.21211 | 1545 ft | 191 kts | 131° |
| 2026-05-05 06:51 | 69.28598 | 16.22888 | 2331 ft | 201 kts | 165° |
| 2026-05-05 06:51 | 69.27195 | 16.22720 | 3117 ft | 204 kts | 187° |
| 2026-05-05 06:51 | 69.25791 | 16.22572 | 3896 ft | 204 kts | 174° |
| 2026-05-05 06:52 | 69.24361 | 16.22706 | 4692 ft | 206 kts | 178° |
| 2026-05-05 06:52 | 69.22915 | 16.22518 | 5490 ft | 208 kts | 182° |
| 2026-05-05 06:52 | 69.21461 | 16.22303 | 6276 ft | 209 kts | 179° |
| 2026-05-05 06:52 | 69.19998 | 16.22238 | 7055 ft | 211 kts | 180° |
| 2026-05-05 06:53 | 69.18546 | 16.22003 | 7844 ft | 212 kts | 181° |
| 2026-05-05 06:53 | 69.17067 | 16.21851 | 8645 ft | 214 kts | 180° |
| 2026-05-05 06:53 | 69.15571 | 16.21706 | 9465 ft | 216 kts | 180° |
| 2026-05-05 06:53 | 69.14063 | 16.21537 | 10226 ft | 218 kts | 181° |
| 2026-05-05 06:54 | 69.12530 | 16.21340 | 10993 ft | 221 kts | 179° |
| 2026-05-05 06:54 | 69.10951 | 16.21229 | 11566 ft | 236 kts | 180° |
| 2026-05-05 06:54 | 69.09218 | 16.21010 | 11604 ft | 263 kts | 182° |
| 2026-05-05 06:54 | 69.07321 | 16.20784 | 11637 ft | 278 kts | 181° |
| 2026-05-05 06:55 | 69.05353 | 16.20616 | 11677 ft | 286 kts | 181° |
| 2026-05-05 06:55 | 69.03360 | 16.20361 | 11712 ft | 292 kts | 182° |
| 2026-05-05 06:55 | 69.01395 | 16.20150 | 11717 ft | 275 kts | 181° |
| 2026-05-05 06:55 | 68.99478 | 16.19979 | 11647 ft | 273 kts | 182° |
| 2026-05-05 06:56 | 68.97576 | 16.19732 | 11658 ft | 270 kts | 182° |
| 2026-05-05 06:56 | 68.95721 | 16.19554 | 11650 ft | 269 kts | 181° |
| 2026-05-05 06:56 | 68.93852 | 16.19369 | 11638 ft | 268 kts | 182° |
| 2026-05-05 06:56 | 68.91984 | 16.19131 | 11628 ft | 267 kts | 181° |
| 2026-05-05 06:57 | 68.90123 | 16.18966 | 11615 ft | 267 kts | 181° |
| 2026-05-05 06:57 | 68.88261 | 16.18760 | 11607 ft | 267 kts | 182° |
| 2026-05-05 06:57 | 68.86426 | 16.18541 | 11600 ft | 267 kts | 181° |
| 2026-05-05 06:57 | 68.84572 | 16.18380 | 11594 ft | 266 kts | 181° |
| 2026-05-05 06:58 | 68.82705 | 16.18160 | 11589 ft | 266 kts | 182° |
| 2026-05-05 06:58 | 68.80847 | 16.17957 | 11577 ft | 266 kts | 181° |
| 2026-05-05 06:58 | 68.79009 | 16.17792 | 11571 ft | 266 kts | 181° |
| 2026-05-05 06:58 | 68.77161 | 16.17566 | 11567 ft | 266 kts | 182° |
| 2026-05-05 06:59 | 68.75308 | 16.17379 | 11573 ft | 266 kts | 181° |
| 2026-05-05 06:59 | 68.73454 | 16.17204 | 11563 ft | 266 kts | 181° |
| 2026-05-05 06:59 | 68.71597 | 16.16977 | 11569 ft | 267 kts | 181° |
| 2026-05-05 06:59 | 68.69763 | 16.16808 | 11569 ft | 267 kts | 181° |
| 2026-05-05 07:00 | 68.67904 | 16.16612 | 11572 ft | 266 kts | 182° |
| 2026-05-05 07:00 | 68.66052 | 16.16397 | 11571 ft | 266 kts | 181° |
| 2026-05-05 07:00 | 68.64193 | 16.16232 | 11576 ft | 266 kts | 181° |
| 2026-05-05 07:00 | 68.62338 | 16.16026 | 11569 ft | 267 kts | 182° |
| 2026-05-05 07:01 | 68.60509 | 16.15824 | 11371 ft | 258 kts | 181° |
| 2026-05-05 07:01 | 68.58743 | 16.15661 | 10846 ft | 256 kts | 181° |
| 2026-05-05 07:01 | 68.56968 | 16.15467 | 10185 ft | 248 kts | 182° |
| 2026-05-05 07:01 | 68.55308 | 16.15291 | 9405 ft | 230 kts | 182° |
| 2026-05-05 07:02 | 68.53746 | 16.15145 | 8523 ft | 220 kts | 182° |
| 2026-05-05 07:02 | 68.52237 | 16.14975 | 7655 ft | 214 kts | 183° |
| 2026-05-05 07:02 | 68.50760 | 16.14830 | 6817 ft | 210 kts | 183° |
| 2026-05-05 07:02 | 68.49328 | 16.14681 | 6016 ft | 207 kts | 184° |
| 2026-05-05 07:03 | 68.47893 | 16.14526 | 5166 ft | 204 kts | 183° |
| 2026-05-05 07:03 | 68.46503 | 16.14400 | 4760 ft | 195 kts | 184° |
| 2026-05-05 07:03 | 68.45121 | 16.14239 | 4796 ft | 200 kts | 184° |
| 2026-05-05 07:03 | 68.43702 | 16.14104 | 4847 ft | 214 kts | 182° |
| 2026-05-05 07:04 | 68.42211 | 16.14907 | 4860 ft | 227 kts | 152° |
| 2026-05-05 07:04 | 68.41058 | 16.17901 | 4902 ft | 238 kts | 120° |
| 2026-05-05 07:04 | 68.40654 | 16.22260 | 4920 ft | 244 kts | 87° |
| 2026-05-05 07:04 | 68.41114 | 16.26667 | 4935 ft | 243 kts | 64° |
| 2026-05-05 07:05 | 68.41523 | 16.31076 | 4704 ft | 230 kts | 88° |
| 2026-05-05 07:05 | 68.41276 | 16.35092 | 4192 ft | 206 kts | 102° |
| 2026-05-05 07:05 | 68.41018 | 16.38795 | 3584 ft | 200 kts | 93° |
| 2026-05-05 07:05 | 68.40962 | 16.42491 | 3014 ft | 191 kts | 89° |
| 2026-05-05 07:06 | 68.40996 | 16.46037 | 2432 ft | 185 kts | 88° |
| 2026-05-05 07:06 | 68.40996 | 16.49494 | 1944 ft | 179 kts | 91° |
| 2026-05-05 07:06 | 68.40988 | 16.52773 | 1771 ft | 172 kts | 89° |
| 2026-05-05 07:06 | 68.40999 | 16.55926 | 1772 ft | 159 kts | 89° |
| 2026-05-05 07:07 | 68.40995 | 16.58903 | 1804 ft | 160 kts | 90° |
| 2026-05-05 07:07 | 68.41014 | 16.61992 | 1588 ft | 168 kts | 81° |
| 2026-05-05 07:07 | 68.41464 | 16.64812 | 1819 ft | 156 kts | 51° |
| 2026-05-05 07:07 | 68.42255 | 16.67010 | 1580 ft | 172 kts | 30° |
| 2026-05-05 07:08 | 68.43362 | 16.68078 | 1364 ft | 170 kts | 5° |
| 2026-05-05 07:08 | 68.44499 | 16.68190 | 1089 ft | 158 kts | 359° |
| 2026-05-05 07:08 | 68.45560 | 16.68200 | 794 ft | 145 kts | 358° |
| 2026-05-05 07:08 | 68.46539 | 16.68113 | 449 ft | 138 kts | 357° |
| 2026-05-05 07:09 | 68.47459 | 16.68016 | 223 ft | 130 kts | 357° |
| 2026-05-05 07:09 | 68.48328 | 16.67925 | 92 ft | 114 kts | 357° |
| 2026-05-05 07:09 | 68.48804 | 16.67871 | 89 ft | 21 kts | 357° |
| 2026-05-05 07:09 | 68.48886 | 16.68022 | 87 ft | 15 kts | 87° |
| 2026-05-05 07:10 | 68.48889 | 16.68368 | 88 ft | 19 kts | 88° |
| 2026-05-05 07:10 | 68.48918 | 16.68547 | 88 ft | 11 kts | 359° |
| 2026-05-05 07:10 | 68.48970 | 16.68540 | 88 ft | 0 kts | 357° |